Time;durP1;ratioP1;P1;durP2;ratioP2;P2;SDS_P1;SDS_P2;PMS_P1;PMS_P2;Temp;Humidity;BMP_temperature;BMP_pressure;BME280_temperature;BME280_humidity;BME280_pressure;Samples;Min_cycle;Max_cycle;Signal;HPM_P1;HPM_P2
2021/03/28 00:02:24;;;;;;;7.25;4.05;;;6.60;71.80;;;;;;6301278;28;20084;-78
2021/03/28 00:05:30;;;;;;;4.95;2.00;;;6.70;71.70;;;;;;6299607;28;20128;-78
2021/03/28 00:08:32;;;;;;;6.40;3.55;;;6.80;71.60;;;;;;6301675;28;20051;-78
2021/03/28 00:11:38;;;;;;;5.97;2.35;;;6.80;71.10;;;;;;6301650;28;20079;-78
2021/03/28 00:14:47;;;;;;;5.22;2.65;;;6.90;71.20;;;;;;6301806;28;20086;-78
2021/03/28 00:17:52;;;;;;;3.05;2.67;;;7.00;71.40;;;;;;6305097;28;20064;-78
2021/03/28 00:21:08;;;;;;;6.30;2.75;;;7.10;71.30;;;;;;6298560;28;20044;-77
2021/03/28 00:24:28;;;;;;;4.45;2.35;;;7.10;71.20;;;;;;6301728;28;20486;-78
2021/03/28 00:27:39;;;;;;;11.45;2.38;;;7.10;71.20;;;;;;6304167;28;20116;-77
2021/03/28 00:30:42;;;;;;;5.65;2.88;;;7.00;71.30;;;;;;6308015;28;20049;-77
2021/03/28 00:33:47;;;;;;;5.07;2.20;;;7.10;71.30;;;;;;6306094;28;20045;-77
2021/03/28 00:36:53;;;;;;;7.63;4.85;;;7.10;71.20;;;;;;6303278;28;20147;-77
2021/03/28 00:39:57;;;;;;;12.88;3.72;;;7.20;71.40;;;;;;6303332;28;20044;-77
2021/03/28 00:43:16;;;;;;;6.15;2.60;;;7.30;71.50;;;;;;6301805;28;20135;-77
2021/03/28 00:46:34;;;;;;;8.20;2.08;;;7.30;71.10;;;;;;6303919;28;20136;-76
2021/03/28 00:49:38;;;;;;;9.45;2.92;;;7.40;71.00;;;;;;6301675;28;20155;-77
2021/03/28 00:52:50;;;;;;;7.70;2.90;;;7.40;70.20;;;;;;6300825;28;20135;-77
2021/03/28 00:55:59;;;;;;;5.43;2.55;;;7.40;70.70;;;;;;6300325;28;20041;-77
2021/03/28 00:59:05;;;;;;;8.68;2.45;;;7.40;70.90;;;;;;6301221;28;20135;-78
2021/03/28 01:02:19;;;;;;;8.60;3.13;;;7.50;70.90;;;;;;6301765;28;20502;-78
2021/03/28 01:05:35;;;;;;;5.55;2.65;;;7.50;70.80;;;;;;6300912;28;20494;-77
2021/03/28 01:08:41;;;;;;;6.43;3.47;;;7.50;71.10;;;;;;6302076;28;20123;-77
2021/03/28 01:12:06;;;;;;;7.50;3.92;;;7.60;71.10;;;;;;6302505;28;20101;-77
2021/03/28 01:15:33;;;;;;;6.28;3.83;;;7.50;71.10;;;;;;6290467;28;20185;-78
2021/03/28 01:18:40;;;;;;;8.10;3.40;;;7.50;71.40;;;;;;6300472;28;20417;-77
2021/03/28 01:21:46;;;;;;;7.20;3.30;;;7.50;71.50;;;;;;6300432;28;20052;-77
2021/03/28 01:24:57;;;;;;;9.90;4.72;;;7.40;71.60;;;;;;6299723;28;20566;-77
2021/03/28 01:28:12;;;;;;;9.85;3.33;;;7.30;71.90;;;;;;6301255;28;20502;-77
2021/03/28 01:31:26;;;;;;;5.78;3.13;;;7.30;72.40;;;;;;6303241;28;20195;-78
2021/03/28 01:34:33;;;;;;;11.00;4.82;;;7.10;72.80;;;;;;6303681;28;20044;-78
2021/03/28 01:37:47;;;;;;;6.18;3.33;;;7.00;72.80;;;;;;6301971;28;20063;-78
2021/03/28 01:40:53;;;;;;;10.05;3.60;;;7.00;73.50;;;;;;6302821;28;20119;-78
2021/03/28 01:44:04;;;;;;;5.22;3.00;;;6.90;73.40;;;;;;6300890;28;20125;-78
2021/03/28 01:47:18;;;;;;;7.30;4.13;;;7.00;73.30;;;;;;6300765;28;20581;-77
2021/03/28 01:50:46;;;;;;;5.30;3.00;;;6.90;73.20;;;;;;6300402;28;20066;-77
2021/03/28 01:53:58;;;;;;;5.88;3.58;;;6.80;73.50;;;;;;6299679;28;20068;-77
2021/03/28 01:57:04;;;;;;;4.05;3.13;;;6.80;73.00;;;;;;6300731;28;20509;-78
2021/03/28 02:00:25;;;;;;;7.35;3.17;;;6.70;73.20;;;;;;6300240;28;20182;-78
2021/03/28 02:03:35;;;;;;;6.82;2.75;;;6.80;73.30;;;;;;6300512;28;20068;-77
2021/03/28 02:07:12;;;;;;;5.97;2.58;;;6.80;73.60;;;;;;6299855;28;20102;-77
2021/03/28 02:10:26;;;;;;;6.50;2.53;;;6.80;73.40;;;;;;6299591;28;20082;-77
2021/03/28 02:13:38;;;;;;;9.00;3.13;;;6.80;73.60;;;;;;6299200;28;20135;-78
2021/03/28 02:16:53;;;;;;;5.45;2.78;;;6.80;73.70;;;;;;6298813;28;20127;-78
2021/03/28 02:20:07;;;;;;;5.05;2.40;;;6.70;73.50;;;;;;6298699;28;20509;-78
2021/03/28 02:23:15;;;;;;;6.20;2.50;;;6.70;73.60;;;;;;6298668;28;20092;-78
2021/03/28 02:26:24;;;;;;;;;;;6.70;73.70;;;;;;6299160;28;20567;-78
2021/03/28 02:29:28;;;;;;;;;;;6.60;73.50;;;;;;6298897;28;20022;-78
2021/03/28 02:32:49;;;;;;;12.18;3.90;;;6.70;73.70;;;;;;6298422;28;20003;-78
2021/03/28 02:36:04;;;;;;;8.13;4.13;;;6.70;74.40;;;;;;6297827;28;20055;-78
2021/03/28 02:39:14;;;;;;;9.60;3.28;;;6.60;74.30;;;;;;6298265;28;20557;-78
2021/03/28 02:42:29;;;;;;;11.25;3.40;;;6.60;74.50;;;;;;6298614;28;20143;-77
2021/03/28 02:45:33;;;;;;;4.78;2.85;;;6.60;75.00;;;;;;6297453;28;20083;-77
2021/03/28 02:48:46;;;;;;;9.93;3.40;;;6.60;75.10;;;;;;6297026;28;20074;-77
2021/03/28 02:52:03;;;;;;;8.65;3.20;;;6.60;75.20;;;;;;6297834;28;20104;-77
2021/03/28 02:55:25;;;;;;;6.80;2.83;;;6.60;75.40;;;;;;6299592;28;20048;-78
2021/03/28 02:58:46;;;;;;;7.45;2.80;;;6.50;75.20;;;;;;6299240;28;20084;-78
2021/03/28 03:02:16;;;;;;;5.57;2.50;;;6.60;75.30;;;;;;6298644;28;20534;-77
2021/03/28 03:05:51;;;;;;;8.20;2.75;;;6.60;74.40;;;;;;6299079;28;20040;-79
2021/03/28 03:09:00;;;;;;;7.43;4.03;;;6.60;73.50;;;;;;6302240;28;20098;-79
2021/03/28 03:12:27;;;;;;;7.40;2.50;;;6.50;74.10;;;;;;6303029;28;20502;-80
2021/03/28 03:15:35;;;;;;;4.28;2.28;;;6.50;74.50;;;;;;6301620;28;20083;-79
2021/03/28 03:19:11;;;;;;;6.88;2.53;;;6.50;75.20;;;;;;6303722;28;20130;-78
2021/03/28 03:22:51;;;;;;;5.05;2.50;;;6.50;75.50;;;;;;6278199;28;20052;-79
2021/03/28 03:26:28;;;;;;;4.10;2.38;;;6.40;75.40;;;;;;6301047;28;20568;-78
2021/03/28 03:29:47;;;;;;;4.93;2.20;;;6.40;75.70;;;;;;6302491;28;20090;-78
2021/03/28 03:33:05;;;;;;;6.22;2.92;;;6.30;75.60;;;;;;6301578;28;20075;-79
2021/03/28 03:36:42;;;;;;;2.17;1.45;;;6.30;75.80;;;;;;6302372;28;20122;-79
2021/03/28 03:40:10;;;;;;;10.45;2.35;;;6.30;76.00;;;;;;6302895;28;20084;-78
2021/03/28 03:43:45;;;;;;;8.90;2.80;;;6.20;75.90;;;;;;6302501;28;20048;-78
2021/03/28 03:47:06;;;;;;;13.82;3.15;;;6.20;75.80;;;;;;6301340;28;20128;-78
2021/03/28 03:50:14;;;;;;;6.93;2.88;;;6.10;75.60;;;;;;6301429;28;20101;-79
2021/03/28 03:53:25;;;;;;;8.05;3.47;;;6.10;75.90;;;;;;6298433;28;20135;-78
2021/03/28 03:56:41;;;;;;;4.57;2.30;;;6.10;76.30;;;;;;6298226;28;20131;-78
2021/03/28 03:59:56;;;;;;;6.15;2.78;;;6.20;76.60;;;;;;6298190;28;20531;-79
2021/03/28 04:03:09;;;;;;;7.88;3.00;;;6.20;76.80;;;;;;6298328;28;20509;-78
2021/03/28 04:06:37;;;;;;;5.25;2.33;;;6.10;77.10;;;;;;6298873;28;20048;-79
2021/03/28 04:09:52;;;;;;;7.88;2.78;;;6.00;77.20;;;;;;6297377;28;20057;-79
2021/03/28 04:13:16;;;;;;;11.55;3.08;;;5.90;77.80;;;;;;6298423;28;20128;-78
2021/03/28 04:16:31;;;;;;;6.63;2.60;;;5.70;78.10;;;;;;6298094;28;20048;-78
2021/03/28 04:19:41;;;;;;;6.22;2.83;;;5.50;78.90;;;;;;6298753;28;20044;-78
2021/03/28 04:23:13;;;;;;;12.55;2.67;;;5.40;79.70;;;;;;6298482;28;20067;-78
2021/03/28 04:26:25;;;;;;;4.75;2.42;;;5.20;80.40;;;;;;6265161;28;20052;-78
2021/03/28 04:29:26;;;;;;;5.20;2.88;;;5.10;80.90;;;;;;6273208;28;20120;-78
2021/03/28 04:32:51;;;;;;;5.35;2.92;;;5.00;81.30;;;;;;6272758;28;20087;-78
2021/03/28 04:36:28;;;;;;;5.63;2.90;;;4.80;81.60;;;;;;6273222;28;20052;-78
2021/03/28 04:39:47;;;;;;;6.22;2.85;;;4.80;81.70;;;;;;6227166;28;20631;-78
2021/03/28 04:43:02;;;;;;;;;;;4.70;81.90;;;;;;6276015;28;20152;-78
2021/03/28 04:46:41;;;;;;;5.63;3.10;;;4.50;82.00;;;;;;6272174;28;20013;-77
2021/03/28 04:50:00;;;;;;;;;;;4.40;82.50;;;;;;6294947;28;20125;-78
2021/03/28 04:53:36;;;;;;;6.25;3.75;;;4.30;82.70;;;;;;6298853;28;19955;-78
2021/03/28 04:57:16;;;;;;;5.15;2.70;;;4.20;82.70;;;;;;6298149;28;20067;-78
2021/03/28 05:01:09;;;;;;;6.47;3.35;;;4.20;83.30;;;;;;6299283;28;20576;-78
2021/03/28 05:04:27;;;;;;;4.40;2.80;;;4.10;83.50;;;;;;6247422;28;20069;-78
2021/03/28 05:07:58;;;;;;;5.65;2.35;;;3.90;84.00;;;;;;6254702;28;20097;-78
2021/03/28 05:11:31;;;;;;;5.45;2.55;;;3.90;84.10;;;;;;6301503;28;20075;-78
2021/03/28 05:14:57;;;;;;;9.15;2.25;;;3.80;84.20;;;;;;6305949;28;20052;-78
2021/03/28 05:18:38;;;;;;;5.22;3.30;;;3.80;84.60;;;;;;6304953;28;20494;-79
2021/03/28 05:22:09;;;;;;;7.07;4.88;;;3.70;85.00;;;;;;6304946;28;20395;-78
2021/03/28 05:25:41;;;;;;;6.60;2.55;;;3.70;85.30;;;;;;6302333;28;20076;-78
2021/03/28 05:29:22;;;;;;;5.57;2.65;;;3.70;85.10;;;;;;6304091;28;20135;-78
2021/03/28 05:33:15;;;;;;;6.43;3.17;;;3.60;85.40;;;;;;6303852;28;20048;-78
2021/03/28 05:36:26;;;;;;;5.47;3.08;;;3.50;85.50;;;;;;6250829;28;20128;-78
2021/03/28 05:39:44;;;;;;;8.85;3.30;;;3.40;86.10;;;;;;6251211;28;20084;-78
2021/03/28 05:43:29;;;;;;;5.57;2.35;;;3.40;86.10;;;;;;6304584;28;20052;-79
2021/03/28 05:46:57;;;;;;;9.50;2.20;;;3.40;86.10;;;;;;6305028;28;20040;-78
2021/03/28 05:50:16;;;;;;;5.32;2.50;;;3.30;86.30;;;;;;6304244;28;20123;-78
2021/03/28 05:53:48;;;;;;;9.57;2.67;;;3.30;86.40;;;;;;6304003;28;20143;-78
2021/03/28 05:57:33;;;;;;;4.93;2.67;;;3.20;86.40;;;;;;6303128;28;20052;-78
2021/03/28 06:01:00;;;;;;;2.43;2.23;;;3.30;86.70;;;;;;6291349;28;20140;-79
2021/03/28 06:04:39;;;;;;;5.93;2.63;;;3.50;86.40;;;;;;6305583;28;20098;-78
2021/03/28 06:08:28;;;;;;;6.80;2.85;;;3.60;85.90;;;;;;6324447;28;20044;-78
2021/03/28 06:12:05;;;;;;;7.43;3.53;;;3.80;85.50;;;;;;6328886;28;20044;-77
2021/03/28 06:15:35;;;;;;;4.20;2.80;;;4.00;85.10;;;;;;6330175;28;20036;-78
2021/03/28 06:19:06;;;;;;;2.70;2.13;;;4.30;84.70;;;;;;6312529;28;20043;-78
2021/03/28 06:22:41;;;;;;;19.17;13.80;;;4.60;83.90;;;;;;6329741;28;20041;-78
2021/03/28 06:26:20;;;;;;;12.57;7.70;;;4.90;83.30;;;;;;6328619;28;20066;-78
2021/03/28 06:29:57;;;;;;;7.03;3.65;;;5.30;82.40;;;;;;6308293;28;20063;-79
2021/03/28 06:33:23;;;;;;;8.25;2.97;;;5.70;81.40;;;;;;6306283;28;20131;-79
2021/03/28 06:37:04;;;;;;;6.28;3.25;;;6.10;80.40;;;;;;6305589;28;20174;-78
2021/03/28 06:40:38;;;;;;;6.72;2.45;;;6.40;79.40;;;;;;6305899;28;20044;-79
2021/03/28 06:44:31;;;;;;;9.98;3.40;;;6.70;78.60;;;;;;6307372;28;20053;-78
2021/03/28 06:47:56;;;;;;;7.18;6.50;;;7.00;77.60;;;;;;6256205;28;20635;-78
2021/03/28 06:51:27;;;;;;;5.38;2.63;;;7.20;76.40;;;;;;6262848;28;20071;-79
2021/03/28 06:55:11;;;;;;;4.18;2.38;;;7.30;75.60;;;;;;6309105;28;20060;-78
2021/03/28 06:58:58;;;;;;;7.95;3.13;;;7.50;74.90;;;;;;6226528;28;20058;-78
2021/03/28 07:02:42;;;;;;;16.05;6.57;;;7.80;74.40;;;;;;6278505;28;20049;-78
2021/03/28 07:05:50;;;;;;;7.88;2.50;;;8.20;73.20;;;;;;6216529;28;20139;-78
2021/03/28 07:09:26;;;;;;;6.43;4.38;;;8.30;71.40;;;;;;6279250;28;20510;-79
2021/03/28 07:12:48;;;;;;;4.55;2.70;;;8.50;70.90;;;;;;6281093;28;20071;-79
2021/03/28 07:16:13;;;;;;;8.93;4.70;;;8.70;70.70;;;;;;6253816;28;20456;-78
2021/03/28 07:19:52;;;;;;;5.75;2.38;;;8.80;70.80;;;;;;6253655;28;20136;-79
2021/03/28 07:23:20;;;;;;;6.40;2.85;;;8.90;69.40;;;;;;6294262;28;20055;-79
2021/03/28 07:26:46;;;;;;;4.72;2.83;;;8.90;69.50;;;;;;6279337;28;20045;-79
2021/03/28 07:30:14;;;;;;;8.27;3.40;;;9.10;69.40;;;;;;6275710;28;20189;-79
2021/03/28 07:33:44;;;;;;;99.80;90.70;;;9.20;69.10;;;;;;6284680;28;20041;-78
2021/03/28 07:37:20;;;;;;;26.30;14.07;;;9.40;67.70;;;;;;6278488;28;20391;-79
2021/03/28 07:40:31;;;;;;;8.45;3.92;;;9.40;67.20;;;;;;6256841;28;20101;-78
2021/03/28 07:44:00;;;;;;;9.82;7.95;;;9.30;67.50;;;;;;6251948;28;20117;-78
2021/03/28 07:47:40;;;;;;;8.23;3.03;;;9.10;68.10;;;;;;6250864;28;20522;-78
2021/03/28 07:51:25;;;;;;;7.05;3.25;;;8.90;69.20;;;;;;6251642;28;20076;-78
2021/03/28 07:55:14;;;;;;;8.68;3.15;;;9.10;69.60;;;;;;6202160;28;20057;-78
2021/03/28 07:58:42;;;;;;;7.50;3.10;;;9.60;68.40;;;;;;6275799;28;20120;-78
2021/03/28 08:01:51;;;;;;;11.07;3.53;;;10.10;66.80;;;;;;6275780;28;20045;-78
2021/03/28 08:05:25;;;;;;;7.85;3.55;;;10.50;65.00;;;;;;6277123;28;20045;-78
2021/03/28 08:08:57;;;;;;;5.80;2.70;;;10.90;63.70;;;;;;6268197;28;20048;-79
2021/03/28 08:12:25;;;;;;;6.20;2.95;;;11.40;61.50;;;;;;6292248;28;20040;-79
2021/03/28 08:16:03;;;;;;;6.72;2.65;;;11.90;59.50;;;;;;6288347;28;20041;-78
2021/03/28 08:19:33;;;;;;;18.13;4.72;;;12.10;57.80;;;;;;6275823;28;20548;-78
2021/03/28 08:22:53;;;;;;;7.93;2.70;;;12.30;57.20;;;;;;6276630;28;20153;-78
2021/03/28 08:26:16;;;;;;;9.07;3.30;;;12.60;56.80;;;;;;6274858;28;20045;-79
2021/03/28 08:29:42;;;;;;;5.72;3.33;;;12.90;56.00;;;;;;6273982;28;20514;-78
2021/03/28 08:33:11;;;;;;;5.63;2.08;;;13.10;52.50;;;;;;6273682;28;20465;-77
2021/03/28 08:36:27;;;;;;;4.25;2.10;;;13.00;53.00;;;;;;6274369;28;20073;-78
2021/03/28 08:39:53;;;;;;;5.63;2.22;;;13.00;53.30;;;;;;6276137;28;20079;-79
2021/03/28 08:43:20;;;;;;;7.40;2.28;;;13.30;52.90;;;;;;6282704;28;20045;-76
2021/03/28 08:46:59;;;;;;;5.55;2.47;;;13.60;51.60;;;;;;6301438;28;20037;-77
2021/03/28 08:50:21;;;;;;;4.95;2.92;;;13.90;50.10;;;;;;6295997;28;20056;-77
2021/03/28 08:54:03;;;;;;;10.55;3.13;;;14.00;49.10;;;;;;6305976;28;20041;-76
2021/03/28 08:57:22;;;;;;;7.20;2.35;;;14.10;49.50;;;;;;6301149;28;20040;-78
2021/03/28 09:00:33;;;;;;;3.47;2.15;;;14.30;48.90;;;;;;6286326;28;20103;-78
2021/03/28 09:04:03;;;;;;;5.82;2.05;;;14.50;47.90;;;;;;6289384;28;20041;-80
2021/03/28 09:07:14;;;;;;;4.28;2.03;;;14.50;47.60;;;;;;6277424;28;20676;-80
2021/03/28 09:10:45;;;;;;;5.63;2.17;;;14.60;47.50;;;;;;6284098;28;20053;-79
2021/03/28 09:13:52;;;;;;;5.82;1.77;;;15.00;48.60;;;;;;6283077;28;20545;-80
2021/03/28 09:17:01;;;;;;;13.38;2.60;;;15.30;46.10;;;;;;6282218;28;20069;-80
2021/03/28 09:20:25;;;;;;;6.40;3.00;;;15.40;49.50;;;;;;6282900;28;20084;-79
2021/03/28 09:23:39;;;;;;;5.35;2.45;;;15.70;45.40;;;;;;6283929;28;20041;-80
2021/03/28 09:26:53;;;;;;;10.95;2.33;;;15.90;43.80;;;;;;6283988;28;20102;-77
2021/03/28 09:30:16;;;;;;;4.72;2.60;;;16.00;45.10;;;;;;6280292;28;20087;-79
2021/03/28 09:33:44;;;;;;;4.57;2.10;;;16.40;44.70;;;;;;6280866;28;20055;-78
2021/03/28 09:37:00;;;;;;;4.93;2.08;;;16.80;44.80;;;;;;6279815;28;20127;-77
2021/03/28 09:40:26;;;;;;;10.80;4.03;;;17.10;43.30;;;;;;6282496;28;20076;-79
2021/03/28 09:43:36;;;;;;;5.78;3.13;;;17.10;42.30;;;;;;6281575;28;20491;-79
2021/03/28 09:46:47;;;;;;;2.70;1.45;;;17.00;41.70;;;;;;6287360;28;20081;-78
2021/03/28 09:50:01;;;;;;;5.10;2.47;;;16.80;43.10;;;;;;6299995;28;20091;-77
2021/03/28 09:53:26;;;;;;;8.40;2.05;;;16.90;41.60;;;;;;6301409;28;20057;-78
2021/03/28 09:56:57;;;;;;;7.47;2.72;;;16.80;41.80;;;;;;6298368;28;20049;-79
2021/03/28 10:00:39;;;;;;;4.85;1.90;;;16.90;41.50;;;;;;6296729;28;20430;-77
2021/03/28 10:03:52;;;;;;;9.40;2.45;;;16.80;42.20;;;;;;6269603;28;20502;-80
2021/03/28 10:07:00;;;;;;;8.80;2.83;;;17.10;41.60;;;;;;6277708;28;20052;-80
2021/03/28 10:10:24;;;;;;;9.85;1.95;;;17.20;40.60;;;;;;6283853;28;20049;-79
2021/03/28 10:13:59;;;;;;;3.80;1.67;;;17.30;41.10;;;;;;6282276;28;20053;-80
2021/03/28 10:17:22;;;;;;;5.15;2.25;;;17.30;40.60;;;;;;6284688;28;20102;-79
2021/03/28 10:20:53;;;;;;;3.63;2.05;;;17.40;40.80;;;;;;6282051;28;20056;-77
2021/03/28 10:24:10;;;;;;;6.70;2.42;;;17.50;39.90;;;;;;6271511;28;20063;-79
2021/03/28 10:27:51;;;;;;;7.05;1.65;;;17.70;40.10;;;;;;6273217;28;20100;-77
2021/03/28 10:31:06;;;;;;;3.70;1.60;;;17.80;41.40;;;;;;6264807;28;20099;-78
2021/03/28 10:34:57;;;;;;;3.47;1.70;;;18.00;38.90;;;;;;6278198;28;20506;-78
2021/03/28 10:38:30;;;;;;;5.88;1.52;;;18.10;38.70;;;;;;6278385;28;20454;-78
2021/03/28 10:42:01;;;;;;;4.43;1.95;;;18.00;38.40;;;;;;6279399;28;20049;-79
2021/03/28 10:45:33;;;;;;;6.70;1.67;;;18.00;38.40;;;;;;6291005;28;20595;-78
2021/03/28 10:49:20;;;;;;;9.48;2.58;;;18.10;38.20;;;;;;6296922;28;20048;-77
2021/03/28 10:53:04;;;;;;;7.22;2.38;;;17.80;38.00;;;;;;6265782;28;20128;-77
2021/03/28 10:56:45;;;;;;;4.47;1.17;;;17.80;38.30;;;;;;6248069;28;20080;-77
2021/03/28 11:00:24;;;;;;;13.95;3.05;;;17.90;37.40;;;;;;6296971;28;20083;-79
2021/03/28 11:04:07;;;;;;;6.97;2.15;;;18.00;37.50;;;;;;6296654;28;20125;-77
2021/03/28 11:07:30;;;;;;;5.60;1.52;;;18.10;37.10;;;;;;6289087;28;20502;-77
2021/03/28 11:11:05;;;;;;;3.65;2.13;;;18.20;36.40;;;;;;6296110;28;20056;-78
2021/03/28 11:14:22;;;;;;;5.38;2.03;;;18.00;36.60;;;;;;6297531;28;20127;-77
2021/03/28 11:17:52;;;;;;;4.22;2.50;;;18.10;37.10;;;;;;6312152;22;20124;-76
2021/03/28 11:20:57;;;;;;;5.75;2.47;;;18.30;37.10;;;;;;6263353;28;20485;-76
2021/03/28 11:24:24;;;;;;;3.38;1.95;;;18.60;37.00;;;;;;6271317;28;20041;-76
2021/03/28 11:28:02;;;;;;;7.38;1.95;;;18.50;36.40;;;;;;6270224;28;20071;-76
2021/03/28 11:31:14;;;;;;;6.90;2.00;;;18.50;36.60;;;;;;6270858;28;20132;-76
2021/03/28 11:34:20;;;;;;;10.70;2.38;;;18.50;36.90;;;;;;6271426;28;20056;-76
2021/03/28 11:37:40;;;;;;;4.88;1.45;;;18.60;36.30;;;;;;6270349;28;20144;-76
2021/03/28 11:40:43;;;;;;;7.90;2.00;;;18.60;36.40;;;;;;6270123;28;20048;-76
2021/03/28 11:43:48;;;;;;;6.00;2.30;;;18.50;35.90;;;;;;6270694;28;20056;-76
2021/03/28 11:47:29;;;;;;;3.63;1.45;;;18.60;36.30;;;;;;6271480;28;20521;-75
2021/03/28 11:50:38;;;;;;;4.78;1.45;;;18.70;36.10;;;;;;6244066;28;20053;-77
2021/03/28 11:53:42;;;;;;;6.20;1.38;;;18.80;36.20;;;;;;6290604;28;20045;-75
2021/03/28 11:56:48;;;;;;;6.05;1.23;;;19.10;36.20;;;;;;6294601;28;20143;-76
2021/03/28 11:59:53;;;;;;;4.30;1.40;;;19.20;34.80;;;;;;6296093;28;20425;-77
2021/03/28 12:03:25;;;;;;;4.70;1.58;;;19.20;35.80;;;;;;6295698;28;20044;-76
2021/03/28 12:06:48;;;;;;;6.95;1.65;;;19.40;35.30;;;;;;6294623;28;20125;-75
2021/03/28 12:09:56;;;;;;;2.92;1.30;;;19.40;34.50;;;;;;6294293;28;20446;-76
2021/03/28 12:13:34;;;;;;;4.70;1.60;;;19.50;35.00;;;;;;6294669;28;20132;-76
2021/03/28 12:17:15;;;;;;;3.67;1.15;;;19.50;34.30;;;;;;6294523;28;20444;-76
2021/03/28 12:20:26;;;;;;;6.43;1.63;;;19.40;34.60;;;;;;6296868;28;20123;-76
2021/03/28 12:23:30;;;;;;;3.78;1.50;;;19.30;33.80;;;;;;6301656;28;20049;-77
2021/03/28 12:26:50;;;;;;;9.27;1.95;;;19.30;33.60;;;;;;6301768;28;20506;-75
2021/03/28 12:29:52;;;;;;;4.35;1.50;;;19.20;34.30;;;;;;6299852;28;20127;-75
2021/03/28 12:33:05;;;;;;;3.83;1.38;;;18.80;34.50;;;;;;6300168;28;20162;-76
2021/03/28 12:36:09;;;;;;;7.88;1.67;;;18.90;35.20;;;;;;6299877;28;20040;-76
2021/03/28 12:39:13;;;;;;;3.85;1.15;;;19.00;35.10;;;;;;6299877;28;20103;-76
2021/03/28 12:42:20;;;;;;;5.35;1.85;;;19.20;34.60;;;;;;6300131;28;20151;-76
2021/03/28 12:45:37;;;;;;;4.75;1.25;;;19.10;33.90;;;;;;6299458;28;20125;-76
2021/03/28 12:48:38;;;;;;;3.50;1.48;;;18.90;34.40;;;;;;6299087;28;20079;-77
2021/03/28 12:51:44;;;;;;;6.72;2.42;;;18.90;34.70;;;;;;6299486;28;20040;-76
2021/03/28 12:55:18;;;;;;;6.43;2.17;;;19.10;34.30;;;;;;6299789;28;20214;-76
2021/03/28 12:58:39;;;;;;;8.55;1.75;;;19.20;34.10;;;;;;6299296;28;20105;-76
2021/03/28 13:01:40;;;;;;;9.18;1.67;;;19.30;34.50;;;;;;6299137;28;20044;-76
2021/03/28 13:04:52;;;;;;;3.42;1.52;;;19.30;34.10;;;;;;6298999;28;20124;-76
2021/03/28 13:07:55;;;;;;;7.13;1.70;;;19.30;33.00;;;;;;6297775;28;20045;-75
2021/03/28 13:11:00;;;;;;;4.60;1.60;;;19.10;33.30;;;;;;6298126;28;20075;-76
2021/03/28 13:14:04;;;;;;;3.45;1.20;;;19.00;33.90;;;;;;6298936;28;20120;-75
2021/03/28 13:17:35;;;;;;;2.47;1.33;;;19.00;34.00;;;;;;6298348;28;20040;-76
2021/03/28 13:20:39;;;;;;;6.10;1.95;;;19.00;34.10;;;;;;6294012;28;20040;-76
2021/03/28 13:23:54;;;;;;;3.40;2.30;;;19.10;33.90;;;;;;6298756;28;20048;-76
2021/03/28 13:27:04;;;;;;;5.97;1.58;;;19.20;34.10;;;;;;6299289;28;20044;-76
2021/03/28 13:30:15;;;;;;;7.13;1.83;;;19.30;33.30;;;;;;6299049;28;20084;-76
2021/03/28 13:33:42;;;;;;;7.80;1.88;;;19.30;33.50;;;;;;6297543;28;20516;-77
2021/03/28 13:37:04;;;;;;;3.97;1.35;;;19.20;33.40;;;;;;6287929;28;20064;-76
2021/03/28 13:40:25;;;;;;;6.72;1.90;;;19.30;33.80;;;;;;6298330;28;20041;-76
2021/03/28 13:43:30;;;;;;;8.35;3.80;;;19.30;33.30;;;;;;6298222;28;20505;-74
2021/03/28 13:46:33;;;;;;;8.35;5.13;;;19.20;33.40;;;;;;6298181;28;20167;-76
2021/03/28 13:49:41;;;;;;;10.05;8.98;;;19.10;33.80;;;;;;6297970;28;20057;-77
2021/03/28 13:52:44;;;;;;;5.13;2.90;;;19.00;33.70;;;;;;6298563;28;20055;-76
2021/03/28 13:55:48;;;;;;;4.75;1.48;;;19.00;33.40;;;;;;6297873;28;20072;-76
2021/03/28 13:59:09;;;;;;;4.07;1.58;;;19.10;33.60;;;;;;6298064;28;20519;-76
2021/03/28 14:02:21;;;;;;;4.28;2.30;;;19.20;33.90;;;;;;6298200;28;20055;-76
2021/03/28 14:05:24;;;;;;;5.80;1.50;;;19.10;33.30;;;;;;6297641;28;20055;-76
2021/03/28 14:08:27;;;;;;;5.55;2.97;;;18.80;34.10;;;;;;6296995;28;20079;-76
2021/03/28 14:11:36;;;;;;;7.25;2.63;;;18.60;34.40;;;;;;6296508;28;20048;-76
2021/03/28 14:14:40;;;;;;;4.78;1.70;;;18.70;35.10;;;;;;6297860;28;20102;-76
2021/03/28 14:17:50;;;;;;;3.75;2.17;;;18.80;34.40;;;;;;6297235;28;20116;-76
2021/03/28 14:21:08;;;;;;;8.10;3.58;;;18.90;34.70;;;;;;6297623;28;20120;-76
2021/03/28 14:24:23;;;;;;;2.17;1.30;;;19.10;34.40;;;;;;6297044;28;20478;-76
2021/03/28 14:27:32;;;;;;;9.07;6.43;;;19.20;34.00;;;;;;6296973;28;20110;-77
2021/03/28 14:30:35;;;;;;;48.10;43.53;;;19.30;33.30;;;;;;6297260;28;20498;-77
2021/03/28 14:33:49;;;;;;;14.30;12.27;;;19.30;33.60;;;;;;6297068;28;20044;-76
2021/03/28 14:37:20;;;;;;;10.05;9.30;;;19.40;33.20;;;;;;6296509;28;20138;-76
2021/03/28 14:40:48;;;;;;;5.63;2.45;;;19.50;33.40;;;;;;6296886;28;20044;-76
2021/03/28 14:44:16;;;;;;;5.22;1.85;;;19.50;33.10;;;;;;6296296;28;20051;-76
2021/03/28 14:47:35;;;;;;;8.18;2.72;;;19.40;33.30;;;;;;6296620;28;20071;-76
2021/03/28 14:50:43;;;;;;;4.00;1.90;;;19.20;33.30;;;;;;6297308;28;20502;-77
2021/03/28 14:53:51;;;;;;;5.80;1.45;;;18.90;33.20;;;;;;6296558;28;20528;-76
2021/03/28 14:56:56;;;;;;;;;;;18.90;33.90;;;;;;6297507;28;20068;-76
2021/03/28 15:00:06;;;;;;;4.85;1.73;;;19.00;34.10;;;;;;6296613;28;19927;-77
2021/03/28 15:03:22;;;;;;;8.20;1.67;;;18.90;33.80;;;;;;6296657;28;20098;-77
2021/03/28 15:06:56;;;;;;;3.05;1.17;;;18.90;33.60;;;;;;6296637;28;20137;-76
2021/03/28 15:10:05;;;;;;;11.43;1.80;;;18.80;34.20;;;;;;6288168;28;20052;-77
2021/03/28 15:13:26;;;;;;;5.05;1.60;;;18.70;33.90;;;;;;6295614;28;20139;-76
2021/03/28 15:16:34;;;;;;;5.38;2.17;;;18.60;34.60;;;;;;6295807;28;20068;-77
2021/03/28 15:19:41;;;;;;;3.90;1.60;;;18.50;35.00;;;;;;6296072;28;20578;-77
2021/03/28 15:22:49;;;;;;;14.57;1.90;;;18.20;34.90;;;;;;6296106;28;20469;-77
2021/03/28 15:26:07;;;;;;;5.75;1.95;;;18.10;35.50;;;;;;6295893;28;20124;-77
2021/03/28 15:29:14;;;;;;;4.85;1.63;;;18.00;35.00;;;;;;6295342;28;20589;-76
2021/03/28 15:32:49;;;;;;;4.78;1.40;;;17.80;35.30;;;;;;6295963;28;20045;-77
2021/03/28 15:36:07;;;;;;;4.53;2.03;;;17.70;36.10;;;;;;6279248;28;20047;-77
2021/03/28 15:39:27;;;;;;;8.73;1.92;;;17.60;36.20;;;;;;6295369;28;20519;-77
2021/03/28 15:42:36;;;;;;;9.20;2.08;;;17.50;36.20;;;;;;6296061;28;20135;-77
2021/03/28 15:45:47;;;;;;;7.32;1.75;;;17.40;36.20;;;;;;6295289;28;20072;-77
2021/03/28 15:49:15;;;;;;;3.75;1.45;;;17.40;36.80;;;;;;6295380;28;20135;-77
2021/03/28 15:52:51;;;;;;;5.55;1.63;;;17.30;36.40;;;;;;6286221;28;20486;-77
2021/03/28 15:56:05;;;;;;;4.07;1.20;;;17.10;36.70;;;;;;6295345;28;20037;-77
2021/03/28 15:59:29;;;;;;;3.28;1.42;;;17.00;37.20;;;;;;6295416;28;20044;-77
2021/03/28 16:02:39;;;;;;;7.32;1.70;;;16.90;37.40;;;;;;6296179;28;20053;-77
2021/03/28 16:05:52;;;;;;;26.77;21.63;;;16.80;37.30;;;;;;6296092;28;20125;-77
2021/03/28 16:09:08;;;;;;;9.88;5.68;;;16.80;37.90;;;;;;6295634;28;20044;-77
2021/03/28 16:12:21;;;;;;;5.25;3.40;;;16.70;38.10;;;;;;6295623;28;20131;-78
2021/03/28 16:15:32;;;;;;;10.80;2.25;;;16.70;38.40;;;;;;6272998;28;20045;-77
2021/03/28 16:18:50;;;;;;;5.55;1.58;;;16.60;38.30;;;;;;6272134;28;20535;-77
2021/03/28 16:22:11;;;;;;;5.72;2.60;;;16.50;38.50;;;;;;6271861;28;20118;-77
2021/03/28 16:25:16;;;;;;;7.38;1.77;;;16.50;39.40;;;;;;6271716;28;20049;-77
2021/03/28 16:28:27;;;;;;;3.72;1.30;;;16.50;38.70;;;;;;6271230;28;20566;-77
2021/03/28 16:32:01;;;;;;;5.45;1.27;;;16.40;39.00;;;;;;6270730;28;20057;-77
2021/03/28 16:35:37;;;;;;;5.28;1.58;;;16.30;39.30;;;;;;6270207;28;20081;-76
2021/03/28 16:39:01;;;;;;;4.53;1.48;;;16.20;39.00;;;;;;6270644;28;20056;-77
2021/03/28 16:42:14;;;;;;;3.67;1.83;;;16.00;39.20;;;;;;6272568;28;20044;-78
2021/03/28 16:45:37;;;;;;;4.40;1.45;;;15.90;39.60;;;;;;6270682;28;20059;-77
2021/03/28 16:48:47;;;;;;;5.63;1.30;;;15.90;39.80;;;;;;6270608;28;20067;-77
2021/03/28 16:51:57;;;;;;;3.40;1.38;;;15.80;40.30;;;;;;6270316;28;20045;-77
2021/03/28 16:55:13;;;;;;;11.00;2.10;;;15.70;40.60;;;;;;6270212;28;20045;-76
2021/03/28 16:58:34;;;;;;;4.75;1.70;;;15.60;41.00;;;;;;6270257;28;20053;-77
2021/03/28 17:01:41;;;;;;;9.55;2.05;;;15.60;41.10;;;;;;6270378;28;20462;-77
2021/03/28 17:04:52;;;;;;;4.40;2.22;;;15.50;40.90;;;;;;6270342;28;20056;-77
2021/03/28 17:08:07;;;;;;;8.25;1.50;;;15.40;41.00;;;;;;6271544;28;20130;-76
2021/03/28 17:11:35;;;;;;;4.07;1.30;;;15.30;41.10;;;;;;6275344;28;20123;-77
2021/03/28 17:14:53;;;;;;;4.00;1.45;;;15.30;41.20;;;;;;6300099;28;20048;-77
2021/03/28 17:18:05;;;;;;;7.60;1.55;;;15.20;41.40;;;;;;6299194;28;20049;-77
2021/03/28 17:21:24;;;;;;;4.20;1.30;;;15.10;41.50;;;;;;6309219;23;20112;-78
2021/03/28 17:24:37;;;;;;;3.67;1.40;;;15.00;41.70;;;;;;6285951;28;20060;-78
2021/03/28 17:28:30;;;;;;;4.68;1.85;;;15.00;42.20;;;;;;6289486;28;20079;-78